New Haven, CT (06511)

11:03 PM EDT on July 23, 2016 (GMT -0400)
SCSU | | Change Station

Elev 72 ft 41.33 °N, 72.95 °W | Updated 39 seconds ago

Clear
Clear
79.5 °F
Feels Like 80 °F
N
3.8
Wind Variable Wind from West

Today
High -- | Low -- °F
--% Chance of Precip.
Yesterday
High -- | Low -- °F
Precip. -- in
Pressure 29.88 in
Visibility 10.0 miles
Clouds Clear
Heat Index 80 °F
Dew Point 54 °F
Humidity 41%
Rainfall Not available.
Snow Depth Not available.
5:38 AM 8:17 PM
Waning Gibbous, 80% visible
METAR KHVN 240253Z AUTO 34007KT 10SM CLR 27/14 A2988 RMK AO2 SLP116 T02720139 53021
Pressure 29.88 in
Visibility 10.0 miles
Clouds Clear
Heat Index 80 °F
Dew Point 54 °F
Humidity 41%
Rainfall Not available.
Snow Depth Not available.
5:38 AM 8:17 PM
Waning Gibbous, 80% visible
METAR KHVN 240253Z AUTO 34007KT 10SM CLR 27/14 A2988 RMK AO2 SLP116 T02720139 53021

10-Day Weather Forecast

Almanac

Astronomy

Jul. 23, 2016 Rise Set
Actual Time
Civil Twilight
Nautical Twilight
Astronomical Twilight
Moon
Length of Visible Light
Length of Day
Tomorrow will be .
, % of the Moon is Illuminated

Today's Extremes

State Highs State Lows

Community

WunderPhotos

Upload Photos

1,927,016 photos uploaded!

WunderBlog® & News

Nearby

Air Quality

  Air Quality AQ Index Pollutant
Not available.

Snow Depth

Station Depth Elevation

Earthquake Activity

City Distance Mag. Time & Date
Minimum magnitude displayed is 2.5.

Coastal Water Temperatures

Place Temperature

Stations

Nearby Weather Stations

Station Location Temp. Windchill Dew Point Humidity Wind Precip. Elev Updated Type
                   

Watches & Warnings

There are currently no watches in effect.